createdAt,value
2023-04-21T00:01:27.706Z,21.37
2023-04-21T00:03:55.641Z,20.03
2023-04-21T00:06:23.398Z,23.83
2023-04-21T00:08:50.707Z,20.13
2023-04-21T00:11:17.791Z,21.77
2023-04-21T00:13:45.226Z,19.17
2023-04-21T00:16:12.110Z,18.80
2023-04-21T00:18:38.875Z,20.43
2023-04-21T00:21:06.186Z,26.33
2023-04-21T00:23:32.969Z,18.97
2023-04-21T00:26:02.586Z,22.60
2023-04-21T00:28:29.818Z,21.30
2023-04-21T00:30:56.927Z,22.00
2023-04-21T00:33:23.824Z,20.57
2023-04-21T00:35:50.518Z,20.43
2023-04-21T00:38:17.172Z,25.23
2023-04-21T00:40:43.836Z,20.90
2023-04-21T00:43:10.520Z,20.67
2023-04-21T00:45:37.889Z,24.00
2023-04-21T00:48:04.781Z,21.87
2023-04-21T00:50:32.733Z,22.77
2023-04-21T00:52:59.813Z,21.57
2023-04-21T00:55:26.593Z,22.83
2023-04-21T00:57:55.319Z,23.83
2023-04-21T01:00:22.207Z,24.60
2023-04-21T01:02:49.677Z,23.67
2023-04-21T01:05:18.078Z,22.73
2023-04-21T01:07:45.328Z,23.27
2023-04-21T01:10:12.349Z,23.07
2023-04-21T01:12:43.689Z,25.63
2023-04-21T01:15:14.676Z,22.17
2023-04-21T01:17:41.857Z,26.63
2023-04-21T01:20:14.246Z,20.73
2023-04-21T01:22:42.732Z,27.80
2023-04-21T01:25:10.256Z,24.50
2023-04-21T01:27:37.205Z,26.43
2023-04-21T01:30:05.424Z,26.30
2023-04-21T01:32:32.295Z,25.47
2023-04-21T01:35:00.074Z,22.67
2023-04-21T01:37:31.601Z,27.73
2023-04-21T01:40:01.012Z,23.83
2023-04-21T01:42:29.864Z,23.87
2023-04-21T01:44:57.096Z,26.73
2023-04-21T01:47:25.317Z,24.37
2023-04-21T01:49:52.907Z,26.00
2023-04-21T01:52:20.042Z,24.30
2023-04-21T01:54:46.924Z,24.23
2023-04-21T01:57:13.657Z,25.53
2023-04-21T01:59:40.461Z,29.17
2023-04-21T02:02:07.632Z,28.30
2023-04-21T02:04:34.715Z,27.43
2023-04-21T02:07:01.853Z,27.73
2023-04-21T02:09:28.710Z,28.57
2023-04-21T02:11:57.065Z,25.13
2023-04-21T02:14:24.980Z,28.03
2023-04-21T02:16:51.717Z,33.50
2023-04-21T02:19:18.692Z,25.90
2023-04-21T02:21:45.660Z,25.37
2023-04-21T02:24:12.467Z,28.43
2023-04-21T02:26:39.171Z,25.40
2023-04-21T02:29:07.209Z,28.73
2023-04-21T02:31:40.454Z,27.97
2023-04-21T02:34:13.124Z,27.27
2023-04-21T02:36:39.847Z,26.57
2023-04-21T02:39:06.600Z,27.57
2023-04-21T02:41:34.034Z,27.33
2023-04-21T02:44:00.669Z,26.93
2023-04-21T02:46:27.361Z,28.90
2023-04-21T02:48:54.022Z,29.50
2023-04-21T02:51:20.738Z,28.43
2023-04-21T02:53:47.386Z,27.40
2023-04-21T02:56:14.144Z,27.83
2023-04-21T02:58:40.795Z,29.63
2023-04-21T03:01:07.496Z,27.97
2023-04-21T03:03:34.737Z,27.33
2023-04-21T03:06:03.356Z,31.30
2023-04-21T03:08:31.079Z,30.77
2023-04-21T03:10:58.090Z,30.60
2023-04-21T03:13:24.932Z,32.87
2023-04-21T03:15:52.193Z,29.87
2023-04-21T03:18:19.212Z,34.10
2023-04-21T03:20:45.893Z,35.83
2023-04-21T03:23:12.676Z,32.13
2023-04-21T03:25:39.482Z,34.80
2023-04-21T03:28:06.275Z,33.80
2023-04-21T03:30:33.133Z,34.43
2023-04-21T03:33:00.057Z,36.67
2023-04-21T03:35:27.165Z,31.63
2023-04-21T03:37:54.085Z,37.97
2023-04-21T03:40:20.788Z,36.00
2023-04-21T03:42:47.496Z,36.43
2023-04-21T03:45:14.316Z,40.27
2023-04-21T03:47:41.120Z,42.17
2023-04-21T03:50:08.200Z,32.03
2023-04-21T03:52:34.945Z,37.30
2023-04-21T03:55:01.716Z,37.80
2023-04-21T03:57:28.399Z,35.17
2023-04-21T03:59:55.071Z,37.10
2023-04-21T04:02:21.868Z,32.30
2023-04-21T04:04:50.415Z,33.83
2023-04-21T04:07:17.665Z,39.17
2023-04-21T04:09:44.653Z,33.60
2023-04-21T04:12:11.952Z,31.70
2023-04-21T04:14:39.413Z,33.23
2023-04-21T04:17:06.176Z,33.70
2023-04-21T04:19:33.432Z,31.60
2023-04-21T04:22:01.289Z,33.47
2023-04-21T04:24:28.402Z,33.30
2023-04-21T04:26:55.263Z,36.30
2023-04-21T04:29:22.689Z,32.63
2023-04-21T04:31:50.922Z,35.67
2023-04-21T04:34:17.944Z,33.40
2023-04-21T04:36:45.325Z,34.60
2023-04-21T04:39:12.433Z,34.93
2023-04-21T04:41:39.466Z,33.23
2023-04-21T04:44:06.339Z,30.73
2023-04-21T04:46:33.593Z,41.00
2023-04-21T04:49:03.651Z,38.00
2023-04-21T04:51:30.372Z,39.37
2023-04-21T04:53:57.067Z,36.43
2023-04-21T04:56:23.785Z,44.07
2023-04-21T04:58:50.751Z,33.20
2023-04-21T05:01:17.965Z,33.47
2023-04-21T05:03:45.939Z,37.93
2023-04-21T05:06:14.000Z,36.37
2023-04-21T05:08:41.463Z,39.83
2023-04-21T05:11:08.798Z,33.20
2023-04-21T05:13:37.467Z,35.07
2023-04-21T05:16:06.441Z,33.73
2023-04-21T05:18:33.157Z,35.20
2023-04-21T05:20:59.792Z,34.07
2023-04-21T05:23:26.581Z,32.57
2023-04-21T05:25:53.292Z,36.50
2023-04-21T05:28:20.087Z,29.57
2023-04-21T05:30:46.765Z,30.47
2023-04-21T05:33:13.568Z,30.03
2023-04-21T05:35:40.444Z,31.87
2023-04-21T05:38:07.192Z,42.13
2023-04-21T05:40:33.919Z,34.67
2023-04-21T05:43:00.581Z,33.70
2023-04-21T05:45:27.343Z,33.10
2023-04-21T05:47:54.148Z,33.47
2023-04-21T05:50:20.899Z,31.83
2023-04-21T05:52:47.570Z,32.53
2023-04-21T05:55:14.273Z,34.30
2023-04-21T05:57:40.932Z,30.27
2023-04-21T06:00:08.609Z,28.50
2023-04-21T06:02:35.434Z,29.37
2023-04-21T06:05:02.321Z,32.07
2023-04-21T06:07:29.278Z,33.63
2023-04-21T06:09:57.723Z,32.43
2023-04-21T06:12:24.494Z,36.57
2023-04-21T06:14:51.252Z,29.77
2023-04-21T06:17:18.393Z,30.50
2023-04-21T06:19:45.053Z,31.93
2023-04-21T06:22:11.897Z,31.90
2023-04-21T06:24:38.596Z,31.60
2023-04-21T06:27:11.361Z,29.90
2023-04-21T06:29:38.235Z,30.73
2023-04-21T06:32:05.262Z,33.63
2023-04-21T06:34:32.086Z,28.73
2023-04-21T06:36:58.831Z,28.47
2023-04-21T06:39:26.789Z,29.80
2023-04-21T06:41:53.741Z,27.30
2023-04-21T06:44:20.985Z,24.13
2023-04-21T06:46:47.902Z,26.77
2023-04-21T06:49:14.665Z,27.03
2023-04-21T06:51:41.714Z,26.47
2023-04-21T06:54:08.374Z,28.60
2023-04-21T06:56:35.176Z,27.20
2023-04-21T06:59:01.985Z,27.20
2023-04-21T07:01:28.889Z,26.90
2023-04-21T07:03:55.788Z,29.13
2023-04-21T07:06:22.577Z,27.93
2023-04-21T07:08:49.660Z,27.17
2023-04-21T07:11:16.376Z,25.17
2023-04-21T07:13:43.128Z,24.27
2023-04-21T07:16:10.254Z,23.93
2023-04-21T07:18:39.119Z,23.60
2023-04-21T07:21:06.059Z,22.60
2023-04-21T07:23:32.902Z,23.73
2023-04-21T07:25:59.923Z,25.77
2023-04-21T07:28:26.778Z,25.83
2023-04-21T07:30:53.622Z,27.00
2023-04-21T07:33:20.498Z,26.57
2023-04-21T07:35:47.376Z,23.33
2023-04-21T07:38:14.164Z,26.10
2023-04-21T07:40:40.905Z,24.33
2023-04-21T07:43:07.656Z,22.77
2023-04-21T07:45:34.402Z,23.53
2023-04-21T07:48:01.310Z,21.77
2023-04-21T07:50:28.536Z,20.33
2023-04-21T07:52:55.442Z,22.60
2023-04-21T07:55:22.465Z,20.57
2023-04-21T07:57:49.479Z,19.50
2023-04-21T08:00:16.821Z,21.67
2023-04-21T08:02:43.644Z,21.30
2023-04-21T08:05:10.571Z,21.73
2023-04-21T08:07:37.415Z,22.97
2023-04-21T08:10:04.403Z,22.77
2023-04-21T08:12:31.085Z,22.00
2023-04-21T08:14:57.836Z,20.03
2023-04-21T08:17:24.767Z,23.30
2023-04-21T08:19:52.126Z,20.60
2023-04-21T08:22:18.986Z,22.63
2023-04-21T08:24:45.724Z,21.80
2023-04-21T08:27:12.500Z,22.53
2023-04-21T08:29:39.350Z,21.70
2023-04-21T08:32:06.141Z,20.23
2023-04-21T08:34:32.926Z,21.10
2023-04-21T08:36:59.620Z,21.63
2023-04-21T08:39:26.868Z,20.23
2023-04-21T08:41:53.866Z,21.53
2023-04-21T08:44:21.568Z,22.77
2023-04-21T08:46:51.736Z,20.53
2023-04-21T08:49:20.973Z,22.50
2023-04-21T08:51:48.209Z,19.67
2023-04-21T08:54:14.892Z,20.97
2023-04-21T08:56:41.903Z,19.90
2023-04-21T08:59:08.558Z,18.33
2023-04-21T09:02:07.211Z,20.87
2023-04-21T09:04:34.543Z,20.43
2023-04-21T09:07:01.741Z,19.77
2023-04-21T09:09:28.407Z,19.50
2023-04-21T09:11:59.361Z,19.63
2023-04-21T09:14:32.932Z,20.20
2023-04-21T09:17:01.135Z,18.17
2023-04-21T09:19:29.148Z,22.23
2023-04-21T09:21:56.328Z,21.53
2023-04-21T09:24:23.105Z,20.90
2023-04-21T09:26:53.743Z,19.43
2023-04-21T09:29:24.830Z,19.93
2023-04-21T09:31:52.440Z,21.57
2023-04-21T09:34:26.693Z,19.77
2023-04-21T09:37:01.459Z,21.13
2023-04-21T09:39:43.251Z,21.93
2023-04-21T09:42:19.130Z,19.93
2023-04-21T09:44:52.537Z,22.13
2023-04-21T09:47:31.072Z,24.13
2023-04-21T09:49:59.063Z,23.33
2023-04-21T09:52:28.921Z,25.73
2023-04-21T09:55:04.200Z,20.87
2023-04-21T09:57:32.577Z,20.50
2023-04-21T10:00:09.330Z,24.80
2023-04-21T10:02:40.462Z,20.97
2023-04-21T10:05:08.161Z,23.37
2023-04-21T10:07:34.913Z,23.50
2023-04-21T10:10:02.687Z,22.17
2023-04-21T10:12:29.975Z,22.97
2023-04-21T10:14:56.991Z,21.20
2023-04-21T10:17:25.810Z,22.37
2023-04-21T10:19:53.494Z,22.63
2023-04-21T10:22:28.737Z,21.33
2023-04-21T10:25:00.061Z,19.67
2023-04-21T10:27:36.829Z,20.30
2023-04-21T10:30:22.356Z,17.50
2023-04-21T10:33:01.790Z,18.80
2023-04-21T10:36:01.583Z,18.87
2023-04-21T10:38:35.831Z,16.17
2023-04-21T10:41:28.077Z,16.10
2023-04-21T10:43:58.476Z,17.93
2023-04-21T10:46:41.219Z,15.73
2023-04-21T10:49:30.203Z,17.37
2023-04-21T10:51:59.955Z,17.30
2023-04-21T10:54:29.355Z,16.37
2023-04-21T10:56:58.451Z,16.70
2023-04-21T10:59:27.057Z,16.80
2023-04-21T11:01:54.655Z,15.77
2023-04-21T11:04:23.182Z,16.63
2023-04-21T11:07:10.422Z,16.67
2023-04-21T11:09:38.284Z,14.13
2023-04-21T11:12:16.120Z,13.47
2023-04-21T11:14:46.302Z,12.03
2023-04-21T11:17:15.262Z,12.00
2023-04-21T11:19:45.050Z,14.20
2023-04-21T11:22:11.927Z,11.67
2023-04-21T11:24:43.848Z,10.80
2023-04-21T11:27:12.315Z,9.27
2023-04-21T11:29:40.200Z,9.70
2023-04-21T11:32:08.306Z,8.43
2023-04-21T11:34:38.308Z,8.17
2023-04-21T11:37:06.989Z,9.53
2023-04-21T11:39:34.183Z,9.37
2023-04-21T11:42:02.119Z,8.77
2023-04-21T11:44:40.904Z,10.53
2023-04-21T11:47:14.573Z,8.10
2023-04-21T11:49:49.446Z,10.40
2023-04-21T11:52:23.478Z,10.18
2023-04-21T11:54:55.636Z,9.77
2023-04-21T11:57:24.204Z,9.77
2023-04-21T11:59:51.724Z,9.20
2023-04-21T12:02:30.762Z,9.13
2023-04-21T12:05:02.077Z,10.00
2023-04-21T12:07:33.722Z,8.47
2023-04-21T12:10:01.675Z,9.47
2023-04-21T12:12:28.797Z,10.20
2023-04-21T12:14:55.734Z,9.27
2023-04-21T12:17:22.594Z,8.37
2023-04-21T12:19:49.400Z,9.70
2023-04-21T12:22:22.969Z,10.13
2023-04-21T12:24:49.679Z,8.93
2023-04-21T12:27:16.548Z,11.70
2023-04-21T12:29:43.305Z,12.53
2023-04-21T12:32:10.408Z,10.97
2023-04-21T12:34:37.434Z,13.23
2023-04-21T12:37:04.876Z,12.17
2023-04-21T12:39:32.046Z,11.57
2023-04-21T12:41:59.471Z,14.70
2023-04-21T12:44:26.204Z,10.70
2023-04-21T12:46:53.236Z,13.70
2023-04-21T12:49:20.187Z,12.13
2023-04-21T12:51:47.227Z,12.43
2023-04-21T12:54:14.452Z,13.83
2023-04-21T12:56:42.671Z,11.63
2023-04-21T12:59:11.220Z,9.70
2023-04-21T13:01:39.077Z,8.17
2023-04-21T13:04:06.328Z,9.13
2023-04-21T13:06:34.056Z,11.23
2023-04-21T13:09:01.746Z,10.52
2023-04-21T13:11:28.496Z,10.02
2023-04-21T13:13:55.152Z,9.13
2023-04-21T13:16:21.895Z,9.30
2023-04-21T13:18:48.639Z,10.57
2023-04-21T13:21:15.423Z,10.23
2023-04-21T13:23:42.126Z,9.70
2023-04-21T13:26:09.326Z,9.00
2023-04-21T13:28:36.472Z,9.57
2023-04-21T13:31:03.486Z,9.37
2023-04-21T13:33:30.481Z,8.93
2023-04-21T13:35:57.221Z,9.10
2023-04-21T13:38:24.011Z,9.30
2023-04-21T13:40:51.361Z,10.63
2023-04-21T13:43:18.292Z,11.70
2023-04-21T13:45:46.085Z,10.60
2023-04-21T13:48:12.862Z,8.87
2023-04-21T13:50:39.733Z,8.60
2023-04-21T13:53:06.603Z,6.60
2023-04-21T13:55:33.371Z,7.17
2023-04-21T13:58:03.092Z,7.77
2023-04-21T14:00:29.802Z,8.27
2023-04-21T14:02:56.821Z,6.87
2023-04-21T14:05:23.991Z,8.80
2023-04-21T14:07:50.971Z,9.13
2023-04-21T14:10:17.763Z,7.90
2023-04-21T14:12:45.172Z,7.10
2023-04-21T14:15:13.224Z,7.57
2023-04-21T14:17:40.117Z,7.00
2023-04-21T14:20:09.316Z,8.57
2023-04-21T14:22:36.347Z,7.10
2023-04-21T14:25:03.204Z,9.07
2023-04-21T14:27:29.959Z,6.90
2023-04-21T14:29:59.176Z,7.40
2023-04-21T14:32:26.389Z,6.97
2023-04-21T14:34:53.662Z,5.97
2023-04-21T14:37:21.766Z,5.60
2023-04-21T14:39:48.470Z,5.22
2023-04-21T14:42:15.339Z,5.95
2023-04-21T14:44:42.066Z,4.93
2023-04-21T14:47:10.768Z,6.00
2023-04-21T14:49:41.043Z,5.57
2023-04-21T14:52:07.993Z,6.37
2023-04-21T14:54:34.875Z,4.93
2023-04-21T14:57:17.580Z,4.97
2023-04-21T14:59:46.634Z,5.80
2023-04-21T15:02:14.125Z,6.33
2023-04-21T15:04:41.365Z,5.32
2023-04-21T15:07:08.294Z,4.30
2023-04-21T15:09:36.458Z,5.63
2023-04-21T15:12:03.607Z,4.65
2023-04-21T15:14:30.489Z,4.93
2023-04-21T15:16:57.570Z,5.07
2023-04-21T15:19:25.755Z,4.30
2023-04-21T15:21:52.786Z,6.23
2023-04-21T15:24:19.587Z,5.10
2023-04-21T15:26:46.358Z,4.70
2023-04-21T15:29:13.224Z,4.53
2023-04-21T15:31:40.350Z,5.50
2023-04-21T15:34:07.130Z,4.20
2023-04-21T15:36:34.303Z,4.07
2023-04-21T15:39:01.081Z,4.70
2023-04-21T15:41:29.466Z,5.20
2023-04-21T15:43:56.487Z,4.20
2023-04-21T15:46:23.473Z,4.43
2023-04-21T15:48:50.475Z,4.27
2023-04-21T15:51:19.085Z,5.32
2023-04-21T15:53:48.737Z,3.88
2023-04-21T15:56:16.482Z,4.57
2023-04-21T15:58:43.336Z,4.78
2023-04-21T16:01:10.366Z,4.22
2023-04-21T16:03:37.429Z,4.27
2023-04-21T16:06:04.431Z,4.40
2023-04-21T16:08:33.146Z,3.97
2023-04-21T16:11:01.010Z,3.92
2023-04-21T16:13:27.974Z,4.57
2023-04-21T16:15:54.783Z,4.30
2023-04-21T16:18:21.712Z,3.75
2023-04-21T16:20:48.579Z,3.77
2023-04-21T16:23:15.557Z,3.50
2023-04-21T16:25:42.625Z,5.40
2023-04-21T16:28:09.770Z,4.30
2023-04-21T16:30:38.389Z,3.87
2023-04-21T16:33:05.353Z,3.80
2023-04-21T16:35:32.338Z,5.35
2023-04-21T16:37:59.114Z,4.43
2023-04-21T16:40:26.060Z,3.88
2023-04-21T16:42:52.929Z,4.03
2023-04-21T16:45:19.787Z,3.83
2023-04-21T16:47:46.669Z,4.13
2023-04-21T16:50:13.638Z,5.07
2023-04-21T16:52:40.468Z,3.50
2023-04-21T16:55:08.075Z,3.87
2023-04-21T16:57:34.902Z,4.20
2023-04-21T17:00:04.474Z,4.07
2023-04-21T17:02:31.583Z,4.77
2023-04-21T17:04:58.440Z,5.07
2023-04-21T17:07:25.398Z,3.90
2023-04-21T17:09:52.205Z,3.40
2023-04-21T17:12:18.970Z,4.00
2023-04-21T17:14:46.200Z,4.13
2023-04-21T17:17:12.867Z,3.67
2023-04-21T17:19:40.271Z,5.90
2023-04-21T17:22:06.966Z,3.83
2023-04-21T17:24:44.862Z,6.83
2023-04-21T17:27:19.270Z,4.13
2023-04-21T17:29:46.747Z,4.43
2023-04-21T17:32:13.574Z,4.50
2023-04-21T17:34:40.440Z,5.97
2023-04-21T17:37:07.485Z,4.07
2023-04-21T17:39:34.192Z,5.33
2023-04-21T17:42:02.643Z,6.30
2023-04-21T17:44:29.713Z,4.67
2023-04-21T17:46:58.084Z,4.40
2023-04-21T17:49:25.349Z,5.10
2023-04-21T17:51:52.325Z,5.70
2023-04-21T17:54:19.155Z,5.63
2023-04-21T17:56:46.280Z,4.43
2023-04-21T17:59:13.638Z,5.40
2023-04-21T18:01:40.796Z,5.00
2023-04-21T18:04:08.149Z,4.77
2023-04-21T18:06:35.899Z,5.67
2023-04-21T18:09:04.503Z,4.33
2023-04-21T18:11:31.677Z,4.77
2023-04-21T18:13:58.738Z,4.63
2023-04-21T18:16:26.439Z,4.73
2023-04-21T18:18:53.330Z,6.60
2023-04-21T18:21:20.807Z,5.10
2023-04-21T18:23:47.505Z,4.33
2023-04-21T18:26:14.327Z,4.77
2023-04-21T18:28:41.021Z,4.77
2023-04-21T18:31:07.877Z,6.57
2023-04-21T18:33:34.703Z,4.47
2023-04-21T18:36:01.518Z,4.90
2023-04-21T18:38:28.204Z,6.10
2023-04-21T18:40:55.622Z,4.83
2023-04-21T18:43:22.703Z,5.23
2023-04-21T18:45:49.417Z,6.10
2023-04-21T18:48:16.124Z,6.57
2023-04-21T18:50:42.854Z,6.43
2023-04-21T18:53:09.660Z,5.70
2023-04-21T18:55:37.304Z,5.20
2023-04-21T18:58:04.389Z,6.53
2023-04-21T19:00:32.267Z,4.10
2023-04-21T19:03:02.655Z,4.57
2023-04-21T19:05:31.582Z,2.93
2023-04-21T19:07:58.806Z,3.93
2023-04-21T19:10:26.579Z,2.80
2023-04-21T19:12:53.698Z,2.17
2023-04-21T19:15:22.101Z,2.00
2023-04-21T19:17:48.872Z,2.87
2023-04-21T19:20:15.695Z,8.40
2023-04-21T19:22:42.534Z,2.47
2023-04-21T19:25:09.855Z,4.37
2023-04-21T19:27:36.815Z,4.23
2023-04-21T19:30:04.873Z,2.70
2023-04-21T19:32:31.601Z,2.93
2023-04-21T19:34:58.313Z,2.80
2023-04-21T19:37:26.367Z,3.40
2023-04-21T19:39:53.178Z,4.27
2023-04-21T19:42:21.779Z,3.20
2023-04-21T19:44:48.478Z,3.23
2023-04-21T19:47:15.305Z,4.40
2023-04-21T19:49:42.050Z,3.27
2023-04-21T19:52:08.825Z,3.87
2023-04-21T19:54:35.741Z,4.87
2023-04-21T19:57:02.572Z,5.47
2023-04-21T19:59:29.264Z,5.00
2023-04-21T20:01:56.085Z,3.77
2023-04-21T20:04:22.921Z,4.13
2023-04-21T20:06:49.848Z,3.23
2023-04-21T20:09:16.654Z,4.03
2023-04-21T20:11:43.531Z,3.43
2023-04-21T20:14:11.586Z,3.60
2023-04-21T20:16:39.332Z,4.00
2023-04-21T20:19:06.378Z,4.30
2023-04-21T20:21:33.215Z,3.83
2023-04-21T20:23:59.895Z,3.30
2023-04-21T20:26:26.675Z,5.87
2023-04-21T20:28:53.455Z,5.10
2023-04-21T20:31:23.567Z,3.57
2023-04-21T20:33:50.483Z,3.70
2023-04-21T20:36:17.742Z,5.00
2023-04-21T20:38:46.297Z,3.60
2023-04-21T20:41:13.487Z,5.07
2023-04-21T20:43:40.449Z,4.90
2023-04-21T20:46:08.713Z,6.03
2023-04-21T20:48:35.444Z,5.47
2023-04-21T20:51:02.681Z,4.57
2023-04-21T20:53:29.392Z,7.63
2023-04-21T20:55:56.278Z,3.80
2023-04-21T20:58:24.488Z,6.53
2023-04-21T21:00:51.292Z,4.33
2023-04-21T21:03:20.234Z,3.97
2023-04-21T21:05:47.467Z,5.50
2023-04-21T21:08:14.951Z,5.60
2023-04-21T21:10:41.873Z,7.70
2023-04-21T21:13:08.525Z,7.07
2023-04-21T21:15:35.427Z,5.43
2023-04-21T21:18:02.465Z,5.30
2023-04-21T21:20:29.279Z,5.17
2023-04-21T21:22:56.156Z,6.37
2023-04-21T21:25:22.888Z,6.13
2023-04-21T21:27:49.656Z,6.53
2023-04-21T21:30:16.419Z,6.03
2023-04-21T21:32:43.295Z,7.50
2023-04-21T21:35:10.641Z,6.00
2023-04-21T21:37:37.778Z,6.97
2023-04-21T21:40:06.068Z,5.50
2023-04-21T21:42:32.850Z,8.23
2023-04-21T21:44:59.768Z,6.50
2023-04-21T21:47:26.853Z,6.50
2023-04-21T21:49:55.204Z,7.43
2023-04-21T21:52:22.165Z,7.97
2023-04-21T21:54:48.872Z,7.23
2023-04-21T21:57:15.814Z,6.77
2023-04-21T21:59:42.647Z,8.90
2023-04-21T22:02:09.427Z,6.50
2023-04-21T22:04:36.390Z,6.53
2023-04-21T22:07:03.635Z,8.93
2023-04-21T22:09:30.479Z,7.77
2023-04-21T22:11:57.171Z,12.40
2023-04-21T22:14:24.283Z,8.23
2023-04-21T22:16:53.084Z,11.17
2023-04-21T22:19:20.511Z,9.30
2023-04-21T22:21:47.554Z,8.67
2023-04-21T22:24:14.753Z,8.60
2023-04-21T22:26:41.928Z,10.67
2023-04-21T22:29:08.700Z,7.37
2023-04-21T22:31:35.486Z,9.17
2023-04-21T22:34:02.286Z,7.50
2023-04-21T22:36:29.094Z,10.50
2023-04-21T22:38:55.995Z,8.20
2023-04-21T22:41:22.881Z,10.23
2023-04-21T22:43:49.584Z,8.50
2023-04-21T22:46:16.379Z,9.17
2023-04-21T22:48:46.348Z,9.67
2023-04-21T22:51:14.374Z,8.20
2023-04-21T22:53:41.108Z,11.10
2023-04-21T22:56:07.790Z,8.97
2023-04-21T22:58:34.480Z,10.63
2023-04-21T23:01:01.846Z,9.27
2023-04-21T23:03:28.769Z,10.33
2023-04-21T23:05:55.667Z,12.43
2023-04-21T23:08:22.527Z,9.37
2023-04-21T23:10:49.298Z,10.27
2023-04-21T23:13:16.027Z,9.27
2023-04-21T23:15:42.714Z,11.47
2023-04-21T23:18:09.433Z,9.53
2023-04-21T23:20:36.257Z,10.30
2023-04-21T23:23:03.462Z,10.20
2023-04-21T23:25:30.643Z,12.03
2023-04-21T23:27:57.349Z,11.63
2023-04-21T23:30:24.036Z,12.43
2023-04-21T23:32:50.884Z,9.63
2023-04-21T23:35:17.729Z,9.83
2023-04-21T23:37:44.529Z,11.10
2023-04-21T23:40:12.554Z,9.83
2023-04-21T23:42:39.455Z,8.93
2023-04-21T23:45:06.988Z,9.67
2023-04-21T23:47:33.989Z,9.07
2023-04-21T23:50:00.809Z,9.13
2023-04-21T23:52:27.758Z,8.63
2023-04-21T23:54:54.506Z,11.03
2023-04-21T23:57:21.268Z,9.13
2023-04-21T23:59:48.051Z,11.37
